Terminal Aerodrome Forecast
Issued by NWS Mt. Holly, NJ

Home | Current Version | Previous Version | Text Only | Print | Product List | Glossary On
Versions: 1 2 3 4 5 6 7 8 9 10 11 12 13 14 15 16 17 18 19 20 21 22 23 24 25
000
FTUS41 KPHI 300553 AAA
TAFACY
TAF AMD
KACY 300553Z 3006/0106 VRB03KT P6SM VCSH BKN050
     FM300900 04006KT P6SM BKN035
      TEMPO 3012/3014 -SHRA
     FM301500 08011G17KT P6SM BKN035
     FM301800 10010G20KT P6SM OVC025
     FM302100 10010G18KT P6SM OVC015
     FM010000 13010KT 4SM BR OVC007=

USA.gov is the U.S. government's official web portal to all federal, state and local government web resources and services.